Time;durP1;ratioP1;P1;durP2;ratioP2;P2;SDS_P1;SDS_P2;PMS_P1;PMS_P2;Temp;Humidity;BMP_temperature;BMP_pressure;BME280_temperature;BME280_humidity;BME280_pressure;Samples;Min_cycle;Max_cycle;Signal;HPM_P1;HPM_P2
2023/03/17 00:02:54;;;;;;;5.35;3.85;;;4.90;99.90;;;;;;5082387;28;20265;-84
2023/03/17 00:06:15;;;;;;;5.45;3.90;;;4.90;99.90;;;;;;5091055;28;20207;-83
2023/03/17 00:09:01;;;;;;;7.25;4.60;;;4.80;99.90;;;;;;5092637;28;20203;-83
2023/03/17 00:11:51;;;;;;;4.35;3.83;;;4.80;99.90;;;;;;5090733;28;20222;-83
2023/03/17 00:17:44;;;;;;;4.80;4.10;;;4.70;99.90;;;;;;5084735;28;20211;-84
2023/03/17 00:20:25;;;;;;;4.97;4.45;;;4.70;99.90;;;;;;5089777;28;20199;-83
2023/03/17 00:23:03;;;;;;;7.95;3.58;;;4.70;99.90;;;;;;5085716;28;20228;-84
2023/03/17 00:28:33;;;;;;;6.93;4.10;;;;;;;;;;5080219;28;20208;-85
2023/03/17 00:36:53;;;;;;;6.65;4.68;;;4.60;99.90;;;;;;5074536;28;20218;-83
2023/03/17 00:39:20;;;;;;;5.43;4.40;;;;;;;;;;5079102;28;20245;-83
2023/03/17 00:45:15;;;;;;;6.25;4.47;;;4.60;99.90;;;;;;5081036;28;20234;-85
2023/03/17 00:47:44;;;;;;;7.28;5.57;;;;;;;;;;5079814;28;20203;-84
2023/03/17 00:50:20;;;;;;;6.88;4.22;;;4.50;99.90;;;;;;5078673;28;20607;-84
2023/03/17 00:52:49;;;;;;;6.55;4.65;;;4.60;99.90;;;;;;5079489;28;20258;-84
2023/03/17 00:55:18;;;;;;;5.43;4.40;;;4.50;99.90;;;;;;5079973;28;20227;-82
2023/03/17 00:57:48;;;;;;;6.63;5.32;;;4.50;99.90;;;;;;5078764;28;20293;-83
2023/03/17 01:00:23;;;;;;;10.65;4.90;;;4.50;99.90;;;;;;5079188;28;20211;-82
2023/03/17 01:02:50;;;;;;;4.90;4.07;;;4.50;99.90;;;;;;5079635;28;20246;-83
2023/03/17 01:05:17;;;;;;;7.97;4.93;;;4.50;99.90;;;;;;5079030;28;20203;-85
2023/03/17 01:07:51;;;;;;;7.90;4.30;;;4.50;99.90;;;;;;5077778;28;20207;-84
2023/03/17 01:10:22;;;;;;;10.55;4.65;;;4.50;99.90;;;;;;5080921;28;20649;-84
2023/03/17 01:12:51;;;;;;;7.35;5.10;;;4.50;99.90;;;;;;5094558;28;20210;-83
2023/03/17 01:15:20;;;;;;;6.90;4.78;;;4.50;99.90;;;;;;5091962;28;20245;-84
2023/03/17 01:17:51;;;;;;;9.90;5.32;;;4.50;99.90;;;;;;5082362;28;20203;-83
2023/03/17 01:20:24;;;;;;;5.80;4.55;;;4.40;99.90;;;;;;5086182;28;20215;-82
2023/03/17 01:22:54;;;;;;;6.10;5.50;;;4.20;1.00;;;;;;5090929;28;20224;-83
2023/03/17 01:25:22;;;;;;;5.07;4.57;;;4.40;1.00;;;;;;5087225;28;20210;-84
2023/03/17 01:27:54;;;;;;;12.20;4.82;;;4.70;1.00;;;;;;5081862;28;20300;-84
2023/03/17 01:30:27;;;;;;;8.75;5.00;;;4.30;1.00;;;;;;5079616;28;20248;-84
2023/03/17 01:32:55;;;;;;;5.88;4.53;;;4.60;99.90;;;;;;5079782;28;20214;-83
2023/03/17 01:35:23;;;;;;;6.63;4.78;;;4.50;99.90;;;;;;5078628;28;20222;-83
2023/03/17 01:37:50;;;;;;;10.27;4.93;;;4.50;99.90;;;;;;5078348;28;20281;-83
2023/03/17 01:40:24;;;;;;;6.00;4.70;;;4.40;1.00;;;;;;5077621;28;20253;-83
2023/03/17 01:42:59;;;;;;;9.63;4.95;;;4.50;1.00;;;;;;5093084;28;20214;-83
2023/03/17 01:46:03;;;;;;;10.70;5.22;;;4.50;99.90;;;;;;5098238;28;20206;-83
2023/03/17 01:48:40;;;;;;;6.07;5.45;;;4.50;99.90;;;;;;5080446;28;20227;-83
2023/03/17 01:51:15;;;;;;;10.32;6.53;;;4.40;99.90;;;;;;5080304;28;20226;-84
2023/03/17 01:53:44;;;;;;;7.00;4.97;;;4.40;99.90;;;;;;5077696;28;20199;-83
2023/03/17 01:56:11;;;;;;;6.75;5.47;;;4.40;1.00;;;;;;5078426;28;20732;-82
2023/03/17 01:58:49;;;;;;;6.80;4.97;;;4.40;1.00;;;;;;5078892;28;20237;-83
2023/03/17 02:01:27;;;;;;;7.05;5.47;;;4.50;1.00;;;;;;5077393;28;20227;-84
2023/03/17 02:03:55;;;;;;;6.95;5.60;;;4.40;1.00;;;;;;5077243;28;20203;-84
2023/03/17 02:06:23;;;;;;;6.97;5.70;;;4.20;1.00;;;;;;5078607;28;20207;-84
2023/03/17 02:08:51;;;;;;;7.53;5.78;;;4.20;1.00;;;;;;5078103;28;20199;-84
2023/03/17 02:11:18;;;;;;;10.82;5.75;;;4.00;1.00;;;;;;5078226;28;20227;-84
2023/03/17 02:14:13;;;;;;;6.10;5.50;;;4.10;1.00;;;;;;5078951;28;20195;-83
2023/03/17 02:17:09;;;;;;;6.05;4.53;;;4.30;1.00;;;;;;5080507;28;20285;-84
2023/03/17 02:20:02;;;;;;;7.68;6.88;;;4.30;1.00;;;;;;5078358;28;20213;-83
2023/03/17 02:23:02;;;;;;;9.52;6.43;;;4.20;1.00;;;;;;5078822;28;20232;-84
2023/03/17 02:25:37;;;;;;;8.05;5.60;;;4.30;1.00;;;;;;5082263;28;20601;-83
2023/03/17 02:28:16;;;;;;;13.20;6.05;;;4.20;1.00;;;;;;5078287;28;20211;-83
2023/03/17 02:31:04;;;;;;;7.88;5.50;;;4.30;1.00;;;;;;5060502;28;20226;-83
2023/03/17 02:34:02;;;;;;;8.15;6.15;;;4.10;1.00;;;;;;5078326;28;20198;-83
2023/03/17 02:36:31;;;;;;;7.45;5.18;;;4.10;1.00;;;;;;5078370;28;20225;-83
2023/03/17 02:39:17;;;;;;;6.18;5.18;;;4.20;1.00;;;;;;5077755;28;20213;-84
2023/03/17 02:42:11;;;;;;;6.47;5.75;;;4.20;1.00;;;;;;5083225;22;20238;-77
2023/03/17 02:45:11;;;;;;;6.18;5.35;;;4.30;1.00;;;;;;5053628;28;20196;-78
2023/03/17 02:48:08;;;;;;;5.28;4.78;;;4.20;1.00;;;;;;5053883;28;20547;-77
2023/03/17 02:51:04;;;;;;;8.50;5.60;;;4.30;1.00;;;;;;5053389;28;20279;-78
2023/03/17 02:54:00;;;;;;;7.35;5.28;;;4.20;1.00;;;;;;5033980;28;20208;-78
2023/03/17 02:56:59;;;;;;;6.65;4.45;;;4.20;1.00;;;;;;5034141;28;20645;-77
2023/03/17 02:59:46;;;;;;;8.60;5.55;;;4.20;1.00;;;;;;5035303;28;20290;-77
2023/03/17 03:02:14;;;;;;;6.10;5.50;;;4.20;1.00;;;;;;5035418;28;20270;-77
2023/03/17 03:05:10;;;;;;;6.50;5.15;;;4.20;1.00;;;;;;5036259;28;20204;-77
2023/03/17 03:07:54;;;;;;;6.45;5.15;;;4.20;1.00;;;;;;5034224;28;20195;-77
2023/03/17 03:10:42;;;;;;;13.60;6.05;;;4.20;1.00;;;;;;5033452;28;20206;-77
2023/03/17 03:13:15;;;;;;;6.10;5.50;;;4.20;1.00;;;;;;5032866;28;20197;-77
2023/03/17 03:15:42;;;;;;;7.20;4.30;;;4.20;1.00;;;;;;5033090;28;20617;-77
2023/03/17 03:18:38;;;;;;;9.88;5.05;;;4.20;1.00;;;;;;5034426;28;20204;-77
2023/03/17 03:21:34;;;;;;;4.78;4.38;;;4.20;1.00;;;;;;5032701;28;20315;-77
2023/03/17 03:24:31;;;;;;;8.95;5.40;;;4.20;1.00;;;;;;5032316;28;20207;-77
2023/03/17 03:27:08;;;;;;;6.38;5.78;;;4.20;1.00;;;;;;5032971;28;20586;-77
2023/03/17 03:29:37;;;;;;;7.53;5.30;;;4.30;1.00;;;;;;5032809;28;20191;-78
2023/03/17 03:32:06;;;;;;;7.38;6.25;;;4.20;1.00;;;;;;5035334;28;20251;-79
2023/03/17 03:34:44;;;;;;;8.23;6.40;;;4.20;1.00;;;;;;5036712;28;20232;-78
2023/03/17 03:37:25;;;;;;;6.07;5.50;;;4.20;1.00;;;;;;5036273;28;20708;-78
2023/03/17 03:40:06;;;;;;;9.90;5.90;;;4.20;1.00;;;;;;5035482;28;20697;-79
2023/03/17 03:42:50;;;;;;;5.63;5.07;;;4.20;1.00;;;;;;5036332;28;20228;-79
2023/03/17 03:45:47;;;;;;;7.45;5.20;;;4.20;1.00;;;;;;5037231;28;20287;-78
2023/03/17 03:48:24;;;;;;;8.98;5.72;;;4.20;1.00;;;;;;5037262;28;20606;-78
2023/03/17 03:51:13;;;;;;;7.95;5.95;;;3.90;1.00;;;;;;5036696;28;20570;-78
2023/03/17 03:53:54;;;;;;;6.78;4.35;;;4.10;1.00;;;;;;5035946;28;20240;-78
2023/03/17 03:56:33;;;;;;;7.68;5.88;;;4.10;1.00;;;;;;5035318;28;20716;-78
2023/03/17 03:59:07;;;;;;;9.88;5.43;;;4.10;1.00;;;;;;5037175;28;20278;-78
2023/03/17 04:01:54;;;;;;;8.05;5.78;;;4.10;1.00;;;;;;5035980;28;20726;-78
2023/03/17 04:04:40;;;;;;;10.02;6.22;;;4.20;1.00;;;;;;5037489;28;20188;-78
2023/03/17 04:07:24;;;;;;;6.50;5.30;;;4.20;1.00;;;;;;5037943;28;20195;-78
2023/03/17 04:10:02;;;;;;;9.75;6.25;;;4.20;1.00;;;;;;5038205;28;20275;-78
2023/03/17 04:12:42;;;;;;;8.13;5.32;;;4.20;1.00;;;;;;5036280;28;20254;-78
2023/03/17 04:15:29;;;;;;;8.05;5.43;;;4.10;1.00;;;;;;5035774;28;20691;-79
2023/03/17 04:18:20;;;;;;;8.43;6.05;;;4.10;1.00;;;;;;5036471;28;20252;-78
2023/03/17 04:21:03;;;;;;;13.30;7.80;;;4.30;1.00;;;;;;5035599;28;20227;-79
2023/03/17 04:23:54;;;;;;;17.73;9.63;;;4.10;1.00;;;;;;5036457;28;20193;-78
2023/03/17 04:29:44;;;;;;;16.80;8.40;;;4.10;99.90;;;;;;5035051;28;20211;-79
2023/03/17 04:32:21;;;;;;;9.00;6.55;;;4.10;1.00;;;;;;5035806;28;20301;-79
2023/03/17 04:34:57;;;;;;;17.08;9.43;;;4.20;1.00;;;;;;5043221;28;20286;-78
2023/03/17 04:37:42;;;;;;;13.68;8.05;;;4.10;1.00;;;;;;5050739;28;20218;-78
2023/03/17 04:40:22;;;;;;;17.13;9.43;;;4.00;1.00;;;;;;5047389;28;20196;-78
2023/03/17 04:42:49;;;;;;;12.68;6.90;;;3.80;1.00;;;;;;5037333;28;20322;-78
2023/03/17 04:45:15;;;;;;;6.18;5.57;;;4.00;1.00;;;;;;5037381;28;20573;-79
2023/03/17 04:47:44;;;;;;;7.55;5.50;;;4.00;1.00;;;;;;5038080;28;20243;-79
2023/03/17 04:50:13;;;;;;;6.65;5.35;;;4.00;99.90;;;;;;5036781;28;20205;-79
2023/03/17 04:52:40;;;;;;;8.85;5.50;;;4.00;1.00;;;;;;5037275;28;20750;-79
2023/03/17 04:55:08;;;;;;;8.60;5.38;;;4.00;1.00;;;;;;5037574;28;20221;-79
2023/03/17 04:57:35;;;;;;;6.32;4.53;;;4.00;1.00;;;;;;5036313;28;20208;-79
2023/03/17 05:00:03;;;;;;;8.05;5.57;;;3.90;99.90;;;;;;5037188;28;20208;-79
2023/03/17 05:02:30;;;;;;;9.73;5.55;;;3.90;99.90;;;;;;5038300;28;20339;-77
2023/03/17 05:04:57;;;;;;;5.45;4.97;;;3.90;99.90;;;;;;5036685;28;20195;-79
2023/03/17 05:07:25;;;;;;;7.47;5.13;;;3.90;99.90;;;;;;5038894;28;20204;-79
2023/03/17 05:09:52;;;;;;;8.77;4.88;;;3.90;99.90;;;;;;5036687;28;20635;-79
2023/03/17 05:12:18;;;;;;;10.48;6.25;;;4.20;1.00;;;;;;5036690;28;20230;-79
2023/03/17 05:14:45;;;;;;;6.30;5.18;;;3.90;99.90;;;;;;5036117;28;20291;-78
2023/03/17 05:17:12;;;;;;;6.38;4.85;;;3.90;99.90;;;;;;5036055;28;20697;-78
2023/03/17 05:19:39;;;;;;;7.75;5.07;;;4.00;99.90;;;;;;5035638;28;20213;-79
2023/03/17 05:22:06;;;;;;;10.23;5.85;;;4.00;99.90;;;;;;5041432;28;20291;-78
2023/03/17 05:24:34;;;;;;;6.93;4.45;;;4.00;99.90;;;;;;5057198;28;20256;-78
2023/03/17 05:27:01;;;;;;;6.53;4.78;;;4.00;99.90;;;;;;5043876;28;20199;-78
2023/03/17 05:29:28;;;;;;;5.80;4.65;;;4.00;1.00;;;;;;5035835;28;20753;-78
2023/03/17 05:31:55;;;;;;;11.45;5.53;;;4.00;99.90;;;;;;5034569;28;20709;-78
2023/03/17 05:34:22;;;;;;;5.72;5.13;;;4.10;99.90;;;;;;5034259;28;20204;-78
2023/03/17 05:36:49;;;;;;;5.35;4.85;;;4.10;99.90;;;;;;5035118;28;20234;-79
2023/03/17 05:39:16;;;;;;;5.35;4.63;;;4.10;99.90;;;;;;5035016;28;20412;-78
2023/03/17 05:41:44;;;;;;;6.78;5.65;;;4.10;99.90;;;;;;5035197;28;20233;-79
2023/03/17 05:44:12;;;;;;;5.30;4.90;;;4.10;99.90;;;;;;5034819;28;20681;-78
2023/03/17 05:46:39;;;;;;;29.42;6.28;;;4.10;99.90;;;;;;5034594;28;20231;-78
2023/03/17 05:49:06;;;;;;;11.40;5.40;;;4.10;99.90;;;;;;5034684;28;20200;-79
2023/03/17 05:51:33;;;;;;;12.27;7.10;;;4.30;99.90;;;;;;5036707;28;20223;-79
2023/03/17 05:54:00;;;;;;;6.32;5.57;;;4.20;99.90;;;;;;5038195;28;20205;-80
2023/03/17 05:56:32;;;;;;;19.90;11.85;;;4.30;99.90;;;;;;5035477;28;20224;-80
2023/03/17 05:59:01;;;;;;;12.77;7.03;;;4.30;99.90;;;;;;5035496;28;20645;-78
2023/03/17 06:01:28;;;;;;;12.18;9.10;;;4.30;99.90;;;;;;5034630;28;20223;-79
2023/03/17 06:03:55;;;;;;;13.85;8.00;;;4.30;99.90;;;;;;5033405;28;20696;-79
2023/03/17 06:06:22;;;;;;;10.32;8.05;;;4.30;99.90;;;;;;5036198;28;20200;-78
2023/03/17 06:08:48;;;;;;;10.57;6.15;;;4.30;99.90;;;;;;5033975;28;20753;-77
2023/03/17 06:11:17;;;;;;;14.57;9.30;;;4.30;99.90;;;;;;5034285;28;20703;-78
2023/03/17 06:13:43;;;;;;;6.82;4.80;;;4.30;99.90;;;;;;5034819;28;20211;-79
2023/03/17 06:16:11;;;;;;;9.30;5.82;;;4.30;99.90;;;;;;5036093;28;20595;-78
2023/03/17 06:18:38;;;;;;;9.57;6.35;;;4.40;99.90;;;;;;5038698;28;20208;-78
2023/03/17 06:21:06;;;;;;;9.52;5.43;;;4.40;99.90;;;;;;5036578;28;20231;-78
2023/03/17 06:23:33;;;;;;;8.00;4.88;;;4.40;99.90;;;;;;5036019;28;20265;-77
2023/03/17 06:26:00;;;;;;;12.43;4.93;;;4.40;99.90;;;;;;5037709;28;20550;-77
2023/03/17 06:28:26;;;;;;;6.00;4.95;;;4.30;1.00;;;;;;5036546;28;20310;-77
2023/03/17 06:30:53;;;;;;;8.43;5.30;;;4.60;1.00;;;;;;5037585;28;20204;-78
2023/03/17 06:33:22;;;;;;;6.82;4.30;;;4.70;1.00;;;;;;5035785;28;20204;-78
2023/03/17 06:35:49;;;;;;;8.20;4.72;;;4.50;99.90;;;;;;5035641;28;20699;-77
2023/03/17 06:38:15;;;;;;;7.38;4.90;;;4.60;99.90;;;;;;5035712;28;20286;-77
2023/03/17 06:40:42;;;;;;;5.82;4.35;;;4.80;1.00;;;;;;5036518;28;20287;-77
2023/03/17 06:43:09;;;;;;;5.50;5.00;;;4.60;99.90;;;;;;5036081;28;20220;-77
2023/03/17 06:45:36;;;;;;;6.15;4.55;;;4.60;99.90;;;;;;5036208;28;20291;-77
2023/03/17 06:48:03;;;;;;;5.47;4.45;;;4.60;99.90;;;;;;5034003;28;20207;-78
2023/03/17 06:50:31;;;;;;;5.80;4.47;;;4.80;1.00;;;;;;5033763;28;20208;-77
2023/03/17 06:52:58;;;;;;;6.22;4.55;;;4.70;99.90;;;;;;5033973;28;20278;-77
2023/03/17 06:55:26;;;;;;;5.80;4.78;;;4.80;99.90;;;;;;5033772;28;20199;-77
2023/03/17 06:57:53;;;;;;;10.60;4.40;;;4.80;99.90;;;;;;5033545;28;20574;-77
2023/03/17 07:00:21;;;;;;;10.95;5.03;;;4.90;1.00;;;;;;5033279;28;20572;-77
2023/03/17 07:02:48;;;;;;;4.72;4.15;;;4.90;99.90;;;;;;5033575;28;20235;-79
2023/03/17 07:05:15;;;;;;;9.82;4.93;;;4.90;99.90;;;;;;5036701;28;20200;-79
2023/03/17 07:07:43;;;;;;;7.45;4.45;;;4.90;99.90;;;;;;5039319;28;20204;-79
2023/03/17 07:10:12;;;;;;;6.63;4.55;;;5.00;99.90;;;;;;5038160;28;20197;-79
2023/03/17 07:12:39;;;;;;;7.15;4.60;;;4.80;1.00;;;;;;5038128;28;20306;-78
2023/03/17 07:15:08;;;;;;;7.63;4.88;;;5.00;99.90;;;;;;5038596;28;20268;-79
2023/03/17 07:17:34;;;;;;;5.53;4.78;;;5.10;99.90;;;;;;5037326;28;20232;-78
2023/03/17 07:20:01;;;;;;;6.57;5.45;;;5.10;99.90;;;;;;5038085;28;20240;-78
2023/03/17 07:22:28;;;;;;;7.07;4.72;;;5.10;99.90;;;;;;5037766;28;20224;-79
2023/03/17 07:24:56;;;;;;;6.03;4.30;;;5.10;99.90;;;;;;5037701;28;20205;-79
2023/03/17 07:27:25;;;;;;;4.55;4.15;;;5.10;99.90;;;;;;5037701;28;20200;-79
2023/03/17 07:29:52;;;;;;;5.60;4.90;;;5.20;99.90;;;;;;5037770;28;20244;-79
2023/03/17 07:32:19;;;;;;;6.43;4.78;;;;;;;;;;5039929;28;20225;-79
2023/03/17 07:34:46;;;;;;;11.93;4.97;;;4.50;99.90;;;;;;5039802;28;20773;-78
2023/03/17 07:37:12;;;;;;;10.43;4.68;;;5.50;99.90;;;;;;5038925;28;20216;-78
2023/03/17 07:39:39;;;;;;;6.82;5.00;;;5.60;99.90;;;;;;5040089;28;20231;-78
2023/03/17 07:42:08;;;;;;;5.55;4.65;;;5.70;99.90;;;;;;5037648;28;20714;-78
2023/03/17 07:44:36;;;;;;;4.90;4.45;;;5.80;1.00;;;;;;5038606;28;20205;-78
2023/03/17 07:47:03;;;;;;;6.75;5.20;;;5.90;99.90;;;;;;5038814;28;20258;-78
2023/03/17 07:49:30;;;;;;;5.55;5.05;;;5.90;99.90;;;;;;5038174;28;20204;-79
2023/03/17 07:51:57;;;;;;;6.00;4.47;;;6.00;99.90;;;;;;5037025;28;20731;-79
2023/03/17 07:54:24;;;;;;;7.05;4.68;;;6.00;99.90;;;;;;5037765;28;20239;-79
2023/03/17 07:56:51;;;;;;;8.15;4.43;;;6.00;99.90;;;;;;5037501;28;20216;-78
2023/03/17 07:59:19;;;;;;;6.18;4.22;;;6.00;99.90;;;;;;5037442;28;20252;-78
2023/03/17 08:01:46;;;;;;;5.20;4.35;;;6.00;99.90;;;;;;5036375;28;20224;-78
2023/03/17 08:04:13;;;;;;;9.52;4.78;;;6.10;99.90;;;;;;5037614;28;20200;-79
2023/03/17 08:06:41;;;;;;;5.75;4.60;;;6.20;99.90;;;;;;5041693;28;20208;-78
2023/03/17 08:09:09;;;;;;;7.63;5.13;;;6.30;99.90;;;;;;5041141;28;20208;-79
2023/03/17 08:11:36;;;;;;;7.55;5.07;;;6.40;99.90;;;;;;5038223;28;20240;-79
2023/03/17 08:14:03;;;;;;;7.07;4.60;;;6.60;99.90;;;;;;5037677;28;20201;-79
2023/03/17 08:16:32;;;;;;;4.95;4.38;;;6.70;99.90;;;;;;5036000;28;20236;-80
2023/03/17 08:18:59;;;;;;;5.63;3.83;;;6.90;99.90;;;;;;5036824;28;20303;-79
2023/03/17 08:21:26;;;;;;;5.55;4.55;;;7.00;99.90;;;;;;5036183;28;20236;-79
2023/03/17 08:23:53;;;;;;;6.50;5.32;;;7.10;99.90;;;;;;5036474;28;20556;-78
2023/03/17 08:26:20;;;;;;;8.65;5.30;;;7.10;99.90;;;;;;5036392;28;20205;-78
2023/03/17 08:28:47;;;;;;;5.40;4.90;;;7.10;99.90;;;;;;5036450;28;20669;-79
2023/03/17 08:31:17;;;;;;;5.20;4.70;;;7.00;99.90;;;;;;5036814;28;20236;-78
2023/03/17 08:33:47;;;;;;;7.25;4.93;;;7.10;99.90;;;;;;5038500;28;20672;-80
2023/03/17 08:36:15;;;;;;;7.17;5.63;;;7.10;99.90;;;;;;5042943;28;20220;-77
2023/03/17 08:38:43;;;;;;;8.50;6.00;;;7.10;99.90;;;;;;5051234;28;20451;-77
2023/03/17 08:41:14;;;;;;;5.83;5.23;;;7.10;99.90;;;;;;5037072;28;20538;-78
2023/03/17 08:43:42;;;;;;;9.40;4.60;;;7.30;99.90;;;;;;5037587;28;20809;-78
2023/03/17 08:46:15;;;;;;;9.60;4.78;;;7.30;99.90;;;;;;5036374;28;20451;-79
2023/03/17 08:48:42;;;;;;;8.07;4.53;;;7.40;99.90;;;;;;5036220;28;20244;-79
2023/03/17 08:51:11;;;;;;;8.30;5.30;;;7.40;99.90;;;;;;5038814;28;20237;-79
2023/03/17 08:53:38;;;;;;;6.77;4.07;;;7.40;99.90;;;;;;5039001;28;20443;-80
2023/03/17 08:56:05;;;;;;;8.43;5.50;;;7.50;99.90;;;;;;5039288;28;20924;-79
2023/03/17 08:58:33;;;;;;;7.68;4.72;;;7.50;99.90;;;;;;5038621;28;20484;-79
2023/03/17 09:01:00;;;;;;;8.17;4.63;;;7.60;99.90;;;;;;5038087;28;20225;-78
2023/03/17 09:03:27;;;;;;;5.70;4.90;;;7.60;99.90;;;;;;5038973;28;20453;-80
2023/03/17 09:05:55;;;;;;;6.20;4.53;;;7.90;1.00;;;;;;5042067;28;20543;-80
2023/03/17 09:08:23;;;;;;;7.07;4.63;;;7.80;99.90;;;;;;5048311;28;20485;-78
2023/03/17 09:10:50;;;;;;;5.93;4.80;;;8.20;1.00;;;;;;5045553;28;20480;-78
2023/03/17 09:13:17;;;;;;;6.13;4.97;;;7.90;99.90;;;;;;5035132;28;20451;-79
2023/03/17 09:15:44;;;;;;;7.57;4.80;;;8.00;99.90;;;;;;5036133;28;20425;-79
2023/03/17 09:18:13;;;;;;;6.90;4.30;;;7.90;99.90;;;;;;5037426;28;20488;-78
2023/03/17 09:20:40;;;;;;;7.03;4.47;;;7.90;1.00;;;;;;5037741;28;20460;-79
2023/03/17 09:23:08;;;;;;;5.93;4.70;;;7.90;99.90;;;;;;5037453;28;20448;-78
2023/03/17 09:25:38;;;;;;;7.67;4.50;;;8.10;99.90;;;;;;5035224;28;20453;-79
2023/03/17 09:28:06;;;;;;;10.73;5.33;;;8.10;99.90;;;;;;5035881;28;20470;-79
2023/03/17 09:30:33;;;;;;;5.03;4.53;;;8.20;99.90;;;;;;5037003;28;20458;-79
2023/03/17 09:33:00;;;;;;;5.73;5.10;;;8.30;99.90;;;;;;5035618;28;20472;-79
2023/03/17 09:35:28;;;;;;;6.33;4.77;;;8.40;99.90;;;;;;5037338;28;20447;-79
2023/03/17 09:37:55;;;;;;;5.23;4.10;;;8.50;99.90;;;;;;5035830;28;20593;-80
2023/03/17 09:40:31;;;;;;;35.43;5.80;;;8.60;99.90;;;;;;5039592;28;20976;-79
2023/03/17 09:43:08;;;;;;;11.43;4.37;;;8.70;99.90;;;;;;5039406;28;21011;-79
2023/03/17 09:45:37;;;;;;;4.93;4.53;;;8.90;99.90;;;;;;5037919;28;20425;-79
2023/03/17 09:48:40;;;;;;;6.93;6.33;;;8.90;99.90;;;;;;5035315;28;20457;-79
2023/03/17 09:51:10;;;;;;;4.93;4.10;;;9.00;99.90;;;;;;5032235;28;21034;-79
2023/03/17 09:53:52;;;;;;;7.43;5.33;;;9.20;99.90;;;;;;5036591;28;20809;-78
2023/03/17 09:56:20;;;;;;;6.30;4.83;;;9.30;99.90;;;;;;5036021;28;20435;-79
2023/03/17 09:58:52;;;;;;;5.30;3.97;;;9.20;99.90;;;;;;5036621;28;20457;-79
2023/03/17 10:01:20;;;;;;;8.23;4.80;;;9.40;99.90;;;;;;5038412;28;20560;-79
2023/03/17 10:03:49;;;;;;;5.13;4.00;;;9.60;99.90;;;;;;5042317;28;20544;-79
2023/03/17 10:06:28;;;;;;;6.93;3.90;;;9.70;99.90;;;;;;5049713;28;20428;-79
2023/03/17 10:09:01;;;;;;;6.73;4.13;;;9.70;99.90;;;;;;5042780;28;20776;-78
2023/03/17 10:11:38;;;;;;;6.07;4.33;;;9.70;99.90;;;;;;5041064;28;20494;-79
2023/03/17 10:14:18;;;;;;;4.97;4.20;;;9.80;99.90;;;;;;5046441;28;20432;-78
2023/03/17 10:16:52;;;;;;;3.90;3.27;;;9.90;99.90;;;;;;5045427;28;20447;-78
2023/03/17 10:19:25;;;;;;;5.30;4.60;;;10.00;1.00;;;;;;5041352;28;20424;-77
2023/03/17 10:21:57;;;;;;;6.77;4.17;;;10.00;99.90;;;;;;5037360;28;20479;-78
2023/03/17 10:24:25;;;;;;;4.70;3.83;;;10.10;99.90;;;;;;5041066;28;20499;-79
2023/03/17 10:26:56;;;;;;;4.60;4.20;;;10.30;99.90;;;;;;5037115;28;20480;-79
2023/03/17 10:29:24;;;;;;;5.27;3.60;;;10.40;99.90;;;;;;5035132;28;20480;-78
2023/03/17 10:31:53;;;;;;;5.90;3.57;;;9.00;1.00;;;;;;5035054;28;20503;-79
2023/03/17 10:34:24;;;;;;;6.63;4.10;;;10.50;99.90;;;;;;5034561;28;20445;-79
2023/03/17 10:36:57;;;;;;;6.97;3.83;;;10.40;99.90;;;;;;5033866;28;20473;-78
2023/03/17 10:39:24;;;;;;;10.70;4.70;;;10.40;99.90;;;;;;5034469;28;20433;-78
2023/03/17 10:41:57;;;;;;;7.67;4.00;;;10.70;99.90;;;;;;5034405;28;20536;-77
2023/03/17 10:44:41;;;;;;;8.23;4.23;;;11.00;1.00;;;;;;5037672;28;20454;-78
2023/03/17 10:47:22;;;;;;;5.43;4.33;;;10.70;99.90;;;;;;5035309;28;20434;-78
2023/03/17 10:49:50;;;;;;;5.13;3.80;;;10.30;1.00;;;;;;5036857;28;20441;-78
2023/03/17 10:52:22;;;;;;;4.20;3.73;;;10.70;99.90;;;;;;5036434;28;20481;-78
2023/03/17 10:54:50;;;;;;;6.93;4.97;;;10.80;99.90;;;;;;5035783;28;20415;-79
2023/03/17 10:57:17;;;;;;;6.83;4.47;;;10.80;99.90;;;;;;5035540;28;20491;-79
2023/03/17 10:59:51;;;;;;;4.60;3.53;;;11.00;99.90;;;;;;5034831;28;20423;-79
2023/03/17 11:02:26;;;;;;;5.57;3.87;;;10.90;99.90;;;;;;5035335;28;20832;-79
2023/03/17 11:05:00;;;;;;;6.03;4.20;;;11.00;99.90;;;;;;5035122;28;20777;-79
2023/03/17 11:07:33;;;;;;;4.93;3.67;;;11.20;99.90;;;;;;5033619;28;20428;-79
2023/03/17 11:10:03;;;;;;;9.27;4.60;;;11.30;99.90;;;;;;5035293;28;20930;-79
2023/03/17 11:12:35;;;;;;;4.97;4.27;;;11.30;99.90;;;;;;5036720;28;20560;-80
2023/03/17 11:15:05;;;;;;;6.00;4.07;;;11.20;99.90;;;;;;5034701;28;20494;-79
2023/03/17 11:17:46;;;;;;;5.10;3.93;;;11.40;99.90;;;;;;5034819;28;20564;-79
2023/03/17 11:20:25;;;;;;;7.40;3.43;;;11.40;99.90;;;;;;5035402;28;20427;-79
2023/03/17 11:23:01;;;;;;;5.60;4.23;;;11.50;99.90;;;;;;5036388;28;20464;-79
2023/03/17 11:25:29;;;;;;;6.37;3.30;;;11.60;99.90;;;;;;5035324;28;20433;-80
2023/03/17 11:28:08;;;;;;;3.40;3.10;;;11.60;99.90;;;;;;5036998;28;20429;-79
2023/03/17 11:30:39;;;;;;;5.03;4.47;;;11.70;99.90;;;;;;5036725;28;20440;-79
2023/03/17 11:33:17;;;;;;;8.73;3.60;;;11.80;99.90;;;;;;5034259;28;20438;-78
2023/03/17 11:35:51;;;;;;;5.10;3.50;;;11.80;99.90;;;;;;5036043;28;20426;-78
2023/03/17 11:38:25;;;;;;;3.90;3.53;;;11.80;99.90;;;;;;5035599;28;20468;-78
2023/03/17 11:41:17;;;;;;;6.03;3.50;;;12.00;1.00;;;;;;5033084;28;20460;-79
2023/03/17 11:44:00;;;;;;;3.70;3.20;;;12.00;99.90;;;;;;5033376;28;20434;-79
2023/03/17 11:46:34;;;;;;;4.67;3.50;;;12.00;99.90;;;;;;5033445;28;20440;-79
2023/03/17 11:49:06;;;;;;;6.53;3.70;;;12.00;99.90;;;;;;5043211;28;20433;-79
2023/03/17 11:51:42;;;;;;;4.37;2.70;;;12.10;99.90;;;;;;5048689;28;20476;-78
2023/03/17 11:54:12;;;;;;;3.97;3.57;;;12.10;99.90;;;;;;5040094;28;20433;-78
2023/03/17 11:56:45;;;;;;;7.07;3.33;;;12.20;99.90;;;;;;5040343;28;20840;-79
2023/03/17 11:59:20;;;;;;;4.17;3.20;;;12.20;99.90;;;;;;5039103;28;20445;-79
2023/03/17 12:01:56;;;;;;;4.10;3.80;;;12.10;99.90;;;;;;5037870;28;20477;-79
2023/03/17 12:04:32;;;;;;;4.57;3.37;;;12.00;99.90;;;;;;5039367;28;20445;-79
2023/03/17 12:07:07;;;;;;;5.47;3.73;;;12.00;99.90;;;;;;5041105;28;20441;-80
2023/03/17 12:09:39;;;;;;;5.97;4.33;;;12.10;99.90;;;;;;5044679;28;20532;-79
2023/03/17 12:12:09;;;;;;;5.80;3.93;;;12.20;99.90;;;;;;5040123;28;20474;-78
2023/03/17 12:14:41;;;;;;;7.70;3.90;;;12.30;99.90;;;;;;5040236;28;20973;-80
2023/03/17 12:17:17;;;;;;;6.20;4.03;;;12.40;99.90;;;;;;5042358;28;20470;-80
2023/03/17 12:19:54;;;;;;;4.00;3.70;;;12.40;99.90;;;;;;5041465;28;20442;-79
2023/03/17 12:22:27;;;;;;;5.00;3.60;;;12.50;99.90;;;;;;5043107;28;20866;-79
2023/03/17 12:25:04;;;;;;;4.30;3.20;;;12.40;99.90;;;;;;5045326;28;20494;-79
2023/03/17 12:27:36;;;;;;;6.17;3.50;;;12.50;99.90;;;;;;5040979;28;20430;-79
2023/03/17 12:30:07;;;;;;;3.27;2.97;;;12.50;99.90;;;;;;5041246;28;20881;-79
2023/03/17 12:32:41;;;;;;;6.03;3.50;;;12.50;99.90;;;;;;5039559;28;20476;-80
2023/03/17 12:35:26;;;;;;;4.40;2.90;;;12.60;99.90;;;;;;5042231;28;20440;-79
2023/03/17 12:37:53;;;;;;;4.40;3.70;;;12.70;99.90;;;;;;5041206;28;20502;-79
2023/03/17 12:40:25;;;;;;;5.53;3.97;;;12.80;99.90;;;;;;5036717;28;20974;-79
2023/03/17 12:42:55;;;;;;;5.67;3.70;;;12.90;99.90;;;;;;5038508;28;20482;-79
2023/03/17 12:45:36;;;;;;;5.63;3.10;;;12.80;99.90;;;;;;5039330;28;20460;-80
2023/03/17 12:48:26;;;;;;;10.13;8.73;;;12.90;99.90;;;;;;5041612;28;20434;-80
2023/03/17 12:51:20;;;;;;;5.00;3.30;;;12.90;1.00;;;;;;5040257;28;20520;-79
2023/03/17 12:53:49;;;;;;;6.60;3.57;;;12.90;99.90;;;;;;5044892;28;20437;-79
2023/03/17 12:56:20;;;;;;;5.77;4.27;;;12.90;99.90;;;;;;5043350;28;20456;-80
2023/03/17 12:58:49;;;;;;;6.67;3.80;;;12.90;99.90;;;;;;5039785;28;20486;-80
2023/03/17 13:01:23;;;;;;;8.30;4.20;;;13.10;1.00;;;;;;5039069;28;20474;-79
2023/03/17 13:04:04;;;;;;;4.00;3.30;;;12.80;99.90;;;;;;5037677;28;20436;-80
2023/03/17 13:06:38;;;;;;;6.43;3.10;;;12.90;99.90;;;;;;5038796;28;20432;-80
2023/03/17 13:09:49;;;;;;;3.30;3.00;;;12.90;99.90;;;;;;5039513;28;20436;-79
2023/03/17 13:12:51;;;;;;;4.77;3.93;;;13.00;99.90;;;;;;5034094;28;20477;-80
2023/03/17 13:15:49;;;;;;;4.60;3.47;;;13.10;99.90;;;;;;5037914;28;20950;-80
2023/03/17 13:18:48;;;;;;;6.07;3.10;;;13.30;99.90;;;;;;5037754;28;21002;-79
2023/03/17 13:21:19;;;;;;;3.67;2.73;;;12.90;1.00;;;;;;5036950;28;20515;-79
2023/03/17 13:23:52;;;;;;;3.27;2.70;;;13.20;99.90;;;;;;5041075;28;20476;-79
2023/03/17 13:26:22;;;;;;;6.70;3.50;;;13.10;99.90;;;;;;5040614;28;20504;-79
2023/03/17 13:28:50;;;;;;;4.47;2.63;;;13.20;99.90;;;;;;5037933;28;20437;-79
2023/03/17 13:31:34;;;;;;;4.37;3.43;;;13.50;1.00;;;;;;5038662;28;20468;-80
2023/03/17 13:34:13;;;;;;;5.47;3.27;;;13.30;99.90;;;;;;5039685;28;20472;-79
2023/03/17 13:36:56;;;;;;;6.80;4.00;;;13.20;99.90;;;;;;5037270;28;20468;-79
2023/03/17 13:40:00;;;;;;;6.90;2.97;;;13.20;99.90;;;;;;5038157;28;20468;-79
2023/03/17 13:42:53;;;;;;;5.20;2.97;;;13.50;1.00;;;;;;5036723;28;20489;-79
2023/03/17 13:45:30;;;;;;;5.43;3.20;;;13.20;99.90;;;;;;5040430;28;21014;-80
2023/03/17 13:48:26;;;;;;;5.50;3.10;;;13.20;99.90;;;;;;5037297;28;20436;-79
2023/03/17 13:50:57;;;;;;;3.47;3.10;;;13.60;1.00;;;;;;5041799;28;20536;-79
2023/03/17 13:53:28;;;;;;;6.50;3.67;;;13.30;99.90;;;;;;5041829;28;21023;-79